createdAt,value
2018-05-17T00:01:23.390Z,25.33
2018-05-17T00:03:29.222Z,26.73
2018-05-17T00:05:34.417Z,27.10
2018-05-17T00:07:40.561Z,32.30
2018-05-17T00:09:45.737Z,26.23
2018-05-17T00:11:51.373Z,31.17
2018-05-17T00:13:56.965Z,29.43
2018-05-17T00:16:02.903Z,29.17
2018-05-17T00:18:10.432Z,32.07
2018-05-17T00:20:18.067Z,349.37
2018-05-17T00:22:24.638Z,897.30
2018-05-17T00:24:29.829Z,507.33
2018-05-17T00:26:36.220Z,330.60
2018-05-17T00:28:41.427Z,286.77
2018-05-17T00:30:46.575Z,165.40
2018-05-17T00:32:53.032Z,176.00
2018-05-17T00:34:58.865Z,158.57
2018-05-17T00:37:04.192Z,133.03
2018-05-17T00:39:12.665Z,122.90
2018-05-17T00:41:19.168Z,125.17
2018-05-17T00:43:24.866Z,103.67
2018-05-17T00:45:30.641Z,93.83
2018-05-17T00:47:35.872Z,88.70
2018-05-17T00:49:41.041Z,83.80
2018-05-17T00:51:47.333Z,78.53
2018-05-17T00:53:52.593Z,81.50
2018-05-17T00:55:57.815Z,77.53
2018-05-17T00:58:03.720Z,63.60
2018-05-17T01:00:12.298Z,64.30
2018-05-17T01:02:19.904Z,57.77
2018-05-17T01:04:26.593Z,66.33
2018-05-17T01:06:31.961Z,47.33
2018-05-17T01:08:37.302Z,46.77
2018-05-17T01:10:42.920Z,45.00
2018-05-17T01:12:48.839Z,47.93
2018-05-17T01:14:54.622Z,42.90
2018-05-17T01:17:00.892Z,39.07
2018-05-17T01:19:07.988Z,42.63
2018-05-17T01:21:17.048Z,38.10
2018-05-17T01:23:24.534Z,39.30
2018-05-17T01:25:30.989Z,34.97
2018-05-17T01:27:36.275Z,33.87
2018-05-17T01:29:42.360Z,32.10
2018-05-17T01:31:47.531Z,31.80
2018-05-17T01:33:52.756Z,31.07
2018-05-17T01:35:58.204Z,30.70
2018-05-17T01:38:15.047Z,35.73
2018-05-17T01:40:23.127Z,32.67
2018-05-17T01:42:29.405Z,26.17
2018-05-17T01:44:34.694Z,31.00
2018-05-17T01:46:40.666Z,30.10
2018-05-17T01:48:46.215Z,27.00
2018-05-17T01:50:51.782Z,26.93
2018-05-17T01:52:57.179Z,25.03
2018-05-17T01:55:02.643Z,26.83
2018-05-17T01:57:09.029Z,25.90
2018-05-17T01:59:16.655Z,25.33
2018-05-17T02:01:22.797Z,25.93
2018-05-17T02:03:28.107Z,23.50
2018-05-17T02:05:33.480Z,21.50
2018-05-17T02:07:38.833Z,21.90
2018-05-17T02:09:44.801Z,25.57
2018-05-17T02:11:50.005Z,19.73
2018-05-17T02:13:55.623Z,25.63
2018-05-17T02:16:00.758Z,26.20
2018-05-17T02:18:06.719Z,21.20
2018-05-17T02:20:15.507Z,21.77
2018-05-17T02:22:22.532Z,24.17
2018-05-17T02:24:28.390Z,26.80
2018-05-17T02:26:33.793Z,20.07
2018-05-17T02:28:39.294Z,27.37
2018-05-17T02:30:44.684Z,25.30
2018-05-17T02:32:50.243Z,28.77
2018-05-17T02:34:56.063Z,29.23
2018-05-17T02:37:02.026Z,21.20
2018-05-17T02:39:09.703Z,25.03
2018-05-17T02:41:18.063Z,27.87
2018-05-17T02:43:24.473Z,27.60
2018-05-17T02:45:31.485Z,27.53
2018-05-17T02:47:38.879Z,22.20
2018-05-17T02:49:44.366Z,28.00
2018-05-17T02:51:49.776Z,20.47
2018-05-17T02:53:55.381Z,18.40
2018-05-17T02:56:01.174Z,25.40
2018-05-17T02:58:08.350Z,22.37
2018-05-17T03:00:16.388Z,18.90
2018-05-17T03:02:23.500Z,21.60
2018-05-17T03:04:28.987Z,19.70
2018-05-17T03:06:34.509Z,25.53
2018-05-17T03:08:40.478Z,25.93
2018-05-17T03:10:46.234Z,20.50
2018-05-17T03:12:52.156Z,26.93
2018-05-17T03:14:57.910Z,25.27
2018-05-17T03:17:03.902Z,27.70
2018-05-17T03:19:11.377Z,25.80
2018-05-17T03:21:18.046Z,21.20
2018-05-17T03:23:25.844Z,20.83
2018-05-17T03:25:31.316Z,22.60
2018-05-17T03:27:36.527Z,23.93
2018-05-17T03:29:43.037Z,30.17
2018-05-17T03:31:48.760Z,24.67
2018-05-17T03:33:55.935Z,24.13
2018-05-17T03:36:01.578Z,22.93
2018-05-17T03:38:08.624Z,18.30
2018-05-17T03:40:17.306Z,17.90
2018-05-17T03:42:25.278Z,15.53
2018-05-17T03:44:30.534Z,19.60
2018-05-17T03:46:36.141Z,25.33
2018-05-17T03:48:42.348Z,26.80
2018-05-17T03:50:48.157Z,21.73
2018-05-17T03:52:53.900Z,20.60
2018-05-17T03:54:59.048Z,21.80
2018-05-17T03:57:04.613Z,21.80
2018-05-17T03:59:15.384Z,14.57
2018-05-17T04:01:31.510Z,18.13
2018-05-17T04:05:48.200Z,16.37
2018-05-17T04:07:53.441Z,20.13
2018-05-17T04:09:59.210Z,24.60
2018-05-17T04:12:05.256Z,19.13
2018-05-17T04:14:14.965Z,14.30
2018-05-17T04:16:22.808Z,20.90
2018-05-17T04:18:29.014Z,30.47
2018-05-17T04:20:35.136Z,16.00
2018-05-17T04:22:41.196Z,28.73
2018-05-17T04:24:46.723Z,18.97
2018-05-17T04:26:52.162Z,18.43
2018-05-17T04:28:58.090Z,20.10
2018-05-17T04:31:03.487Z,14.97
2018-05-17T04:33:12.256Z,19.33
2018-05-17T04:35:19.626Z,18.40
2018-05-17T04:37:25.941Z,22.47
2018-05-17T04:39:32.253Z,17.50
2018-05-17T04:41:37.798Z,23.40
2018-05-17T04:43:43.485Z,19.73
2018-05-17T04:45:49.641Z,19.90
2018-05-17T04:47:54.936Z,19.03
2018-05-17T04:50:00.151Z,20.20
2018-05-17T04:52:06.287Z,20.57
2018-05-17T04:54:15.513Z,20.83
2018-05-17T04:56:23.158Z,11.20
2018-05-17T04:58:28.699Z,24.47
2018-05-17T05:00:34.024Z,19.43
2018-05-17T05:02:40.084Z,20.00
2018-05-17T05:04:45.648Z,18.33
2018-05-17T05:06:50.806Z,20.43
2018-05-17T05:08:56.569Z,18.63
2018-05-17T05:11:02.179Z,19.53
2018-05-17T05:13:07.972Z,19.93
2018-05-17T05:15:16.077Z,22.77
2018-05-17T05:17:23.079Z,17.20
2018-05-17T05:19:28.729Z,23.80
2018-05-17T05:21:34.838Z,14.37
2018-05-17T05:23:40.536Z,23.57
2018-05-17T05:25:45.719Z,21.90
2018-05-17T05:27:51.542Z,18.87
2018-05-17T05:29:57.721Z,22.07
2018-05-17T05:32:04.305Z,292.57
2018-05-17T05:34:10.831Z,406.40
2018-05-17T05:36:19.088Z,287.37
2018-05-17T05:38:25.213Z,286.40
2018-05-17T05:40:30.798Z,342.20
2018-05-17T05:42:36.415Z,202.40
2018-05-17T05:44:41.644Z,193.73
2018-05-17T05:46:47.063Z,106.33
2018-05-17T05:48:52.815Z,116.50
2018-05-17T05:50:57.950Z,91.90
2018-05-17T05:53:03.716Z,83.87
2018-05-17T05:55:11.780Z,64.33
2018-05-17T05:57:19.520Z,70.77
2018-05-17T05:59:25.294Z,61.67
2018-05-17T06:01:30.825Z,59.90
2018-05-17T06:03:36.745Z,332.30
2018-05-17T06:05:42.030Z,237.17
2018-05-17T06:07:48.061Z,275.23
2018-05-17T06:09:53.337Z,247.27
2018-05-17T06:11:58.974Z,228.00
2018-05-17T06:14:04.816Z,197.63
2018-05-17T06:16:13.548Z,138.83
2018-05-17T06:18:20.275Z,139.63
2018-05-17T06:20:27.766Z,111.37
2018-05-17T06:22:32.934Z,79.13
2018-05-17T06:24:38.008Z,80.30
2018-05-17T06:26:43.633Z,75.97
2018-05-17T06:28:49.106Z,56.50
2018-05-17T06:30:54.314Z,129.10
2018-05-17T06:33:01.280Z,426.07
2018-05-17T06:35:07.167Z,487.30
2018-05-17T06:37:15.722Z,315.30
2018-05-17T06:39:24.701Z,226.27
2018-05-17T06:41:30.041Z,246.13
2018-05-17T06:43:35.294Z,205.47
2018-05-17T06:45:40.938Z,129.67
2018-05-17T06:47:46.089Z,109.90
2018-05-17T06:49:51.367Z,87.50
2018-05-17T06:51:56.803Z,80.50
2018-05-17T06:54:02.137Z,68.90
2018-05-17T06:56:09.290Z,71.37
2018-05-17T06:58:17.196Z,60.23
2018-05-17T07:00:23.248Z,51.27
2018-05-17T07:02:29.346Z,156.77
2018-05-17T07:04:35.350Z,577.63
2018-05-17T07:06:40.505Z,475.00
2018-05-17T07:08:46.352Z,344.27
2018-05-17T07:10:52.587Z,411.13
2018-05-17T07:13:00.147Z,617.53
2018-05-17T07:15:06.498Z,1061.67
2018-05-17T07:17:15.345Z,478.10
2018-05-17T07:19:22.377Z,386.70
2018-05-17T07:21:33.220Z,248.43
2018-05-17T07:23:38.683Z,101.77
2018-05-17T07:25:49.550Z,97.73
2018-05-17T07:27:55.201Z,86.47
2018-05-17T07:30:00.719Z,67.93
2018-05-17T07:32:06.724Z,61.63
2018-05-17T07:34:14.905Z,56.13
2018-05-17T07:36:22.161Z,414.53
2018-05-17T07:38:27.684Z,101.37
2018-05-17T07:40:32.987Z,50.70
2018-05-17T07:42:38.442Z,42.93
2018-05-17T07:44:43.627Z,40.23
2018-05-17T07:46:48.892Z,38.63
2018-05-17T07:48:54.378Z,30.50
2018-05-17T07:50:59.629Z,334.23
2018-05-17T07:53:05.008Z,295.53
2018-05-17T07:55:13.586Z,301.00
2018-05-17T07:57:21.234Z,213.03
2018-05-17T07:59:27.864Z,183.20
2018-05-17T08:01:34.022Z,143.20
2018-05-17T08:03:39.245Z,116.57
2018-05-17T08:05:44.446Z,112.20
2018-05-17T08:07:50.659Z,86.00
2018-05-17T08:09:56.523Z,62.00
2018-05-17T08:12:02.659Z,59.43
2018-05-17T08:14:09.939Z,52.40
2018-05-17T08:16:17.300Z,44.00
2018-05-17T08:18:23.422Z,40.47
2018-05-17T08:20:29.863Z,43.10
2018-05-17T08:22:35.200Z,34.73
2018-05-17T08:24:41.007Z,35.10
2018-05-17T08:26:46.953Z,39.53
2018-05-17T08:28:52.274Z,38.47
2018-05-17T08:30:57.494Z,506.37
2018-05-17T08:33:03.645Z,582.60
2018-05-17T08:35:10.965Z,605.23
2018-05-17T08:37:18.066Z,391.80
2018-05-17T08:39:24.222Z,267.07
2018-05-17T08:41:30.043Z,182.27
2018-05-17T08:43:35.711Z,129.43
2018-05-17T08:45:42.094Z,146.90
2018-05-17T08:47:47.429Z,101.63
2018-05-17T08:49:52.849Z,106.33
2018-05-17T08:51:58.294Z,80.17
2018-05-17T08:54:03.500Z,64.63
2018-05-17T08:56:10.424Z,61.03
2018-05-17T08:58:19.564Z,57.47
2018-05-17T09:00:25.617Z,44.30
2018-05-17T09:02:31.550Z,46.80
2018-05-17T09:04:37.137Z,41.63
2018-05-17T09:06:43.598Z,35.80
2018-05-17T09:08:49.375Z,43.33
2018-05-17T09:10:59.669Z,33.97
2018-05-17T09:13:08.226Z,33.43
2018-05-17T09:15:17.527Z,101.03
2018-05-17T09:17:25.380Z,416.37
2018-05-17T09:19:32.553Z,554.33
2018-05-17T09:21:38.795Z,373.13
2018-05-17T09:23:45.351Z,299.73
2018-05-17T09:25:51.311Z,220.30
2018-05-17T09:27:58.741Z,188.37
2018-05-17T09:30:08.936Z,129.07
2018-05-17T09:32:17.170Z,132.33
2018-05-17T09:34:25.660Z,95.90
2018-05-17T09:36:31.975Z,79.33
2018-05-17T09:38:45.378Z,77.93
2018-05-17T09:40:53.202Z,70.57
2018-05-17T09:43:00.232Z,51.07
2018-05-17T09:48:22.590Z,401.10
2018-05-17T09:50:31.138Z,283.97
2018-05-17T09:52:37.817Z,176.27
2018-05-17T09:54:49.678Z,216.83
2018-05-17T09:56:56.583Z,183.87
2018-05-17T09:59:04.208Z,664.93
2018-05-17T10:01:20.138Z,1031.77
2018-05-17T10:03:26.561Z,1256.13
2018-05-17T10:05:36.916Z,621.10
2018-05-17T10:07:46.200Z,196.67
2018-05-17T10:09:57.741Z,167.73
2018-05-17T10:12:03.697Z,82.83
2018-05-17T10:15:36.129Z,73.40
2018-05-17T10:17:42.439Z,42.53
2018-05-17T10:19:50.330Z,43.37
2018-05-17T10:21:57.242Z,36.67
2018-05-17T10:24:03.602Z,39.27
2018-05-17T10:26:15.915Z,46.03
2018-05-17T10:28:24.999Z,34.23
2018-05-17T10:30:33.170Z,29.37
2018-05-17T10:32:39.525Z,56.67
2018-05-17T10:34:46.738Z,237.53
2018-05-17T10:36:52.488Z,314.40
2018-05-17T10:38:58.812Z,296.77
2018-05-17T10:41:07.269Z,617.57
2018-05-17T10:43:17.651Z,241.43
2018-05-17T10:45:25.900Z,189.27
2018-05-17T10:47:32.729Z,134.53
2018-05-17T10:49:38.910Z,108.03
2018-05-17T10:51:44.869Z,107.93
2018-05-17T10:53:50.449Z,61.37
2018-05-17T10:55:56.338Z,64.03
2018-05-17T10:58:02.271Z,57.03
2018-05-17T11:00:10.630Z,53.63
2018-05-17T11:02:20.588Z,45.87
2018-05-17T11:04:27.471Z,45.87
2018-05-17T11:06:33.272Z,44.30
2018-05-17T11:08:39.309Z,42.93
2018-05-17T11:10:45.211Z,39.77
2018-05-17T11:12:50.562Z,29.80
2018-05-17T11:14:55.858Z,27.67
2018-05-17T11:17:01.840Z,33.43
2018-05-17T11:19:08.520Z,31.03
2018-05-17T11:21:16.935Z,28.50
2018-05-17T11:23:24.742Z,25.83
2018-05-17T11:25:30.801Z,27.47
2018-05-17T11:27:36.304Z,27.47
2018-05-17T11:29:41.947Z,25.93
2018-05-17T11:31:47.865Z,27.50
2018-05-17T11:33:53.567Z,23.43
2018-05-17T11:36:01.927Z,29.23
2018-05-17T11:38:08.501Z,27.40
2018-05-17T11:40:16.670Z,29.17
2018-05-17T11:42:24.395Z,21.13
2018-05-17T11:44:30.002Z,24.80
2018-05-17T11:46:35.629Z,21.23
2018-05-17T11:48:41.301Z,22.43
2018-05-17T11:50:46.626Z,341.77
2018-05-17T11:52:52.143Z,218.87
2018-05-17T11:54:57.928Z,291.50
2018-05-17T11:57:03.324Z,176.77
2018-05-17T11:59:12.703Z,135.90
2018-05-17T12:01:19.359Z,94.93
2018-05-17T12:03:25.011Z,77.83
2018-05-17T12:05:30.533Z,94.07
2018-05-17T12:07:40.095Z,68.30
2018-05-17T12:09:45.385Z,64.00
2018-05-17T12:11:50.606Z,48.20
2018-05-17T12:13:56.178Z,56.03
2018-05-17T12:16:01.797Z,43.33
2018-05-17T12:18:08.328Z,48.77
2018-05-17T12:20:16.646Z,31.87
2018-05-17T12:22:24.986Z,38.67
2018-05-17T12:24:30.263Z,36.03
2018-05-17T12:26:35.850Z,35.60
2018-05-17T12:28:41.230Z,26.93
2018-05-17T12:30:46.565Z,360.73
2018-05-17T12:32:52.225Z,488.40
2018-05-17T12:34:57.678Z,314.03
2018-05-17T12:37:03.159Z,249.60
2018-05-17T12:39:11.755Z,171.87
2018-05-17T12:41:18.709Z,118.07
2018-05-17T12:43:25.670Z,683.50
2018-05-17T12:45:31.343Z,585.40
2018-05-17T12:47:36.642Z,736.30
2018-05-17T12:49:42.030Z,262.57
2018-05-17T12:51:47.554Z,301.83
2018-05-17T12:53:52.702Z,969.97
2018-05-17T12:55:58.085Z,406.13
2018-05-17T13:00:16.204Z,61.30
2018-05-17T13:04:34.818Z,39.67
2018-05-17T13:06:40.052Z,36.87
2018-05-17T13:08:45.286Z,35.67
2018-05-17T13:10:50.862Z,38.27
2018-05-17T13:12:56.303Z,27.97
2018-05-17T13:15:02.022Z,22.77
2018-05-17T13:17:08.344Z,23.20
2018-05-17T13:19:16.571Z,24.03
2018-05-17T13:21:22.812Z,22.40
2018-05-17T13:23:28.358Z,20.67
2018-05-17T13:25:33.583Z,22.43
2018-05-17T13:27:39.893Z,22.73
2018-05-17T13:29:45.691Z,20.77
2018-05-17T13:31:50.905Z,24.47
2018-05-17T13:33:56.145Z,21.97
2018-05-17T13:36:02.641Z,21.83
2018-05-17T13:38:09.111Z,20.93
2018-05-17T13:40:17.112Z,22.47
2018-05-17T13:42:25.227Z,25.00
2018-05-17T13:44:30.879Z,18.13
2018-05-17T13:46:36.156Z,20.13
2018-05-17T13:48:41.649Z,19.93
2018-05-17T13:50:47.354Z,19.40
2018-05-17T13:52:52.574Z,19.20
2018-05-17T13:54:57.998Z,21.77
2018-05-17T13:57:04.147Z,24.50
2018-05-17T13:59:12.059Z,22.60
2018-05-17T14:01:19.680Z,20.20
2018-05-17T14:03:25.223Z,23.20
2018-05-17T14:05:30.477Z,26.73
2018-05-17T14:07:35.998Z,24.93
2018-05-17T14:09:41.272Z,18.33
2018-05-17T14:11:46.369Z,21.07
2018-05-17T14:13:51.854Z,23.33
2018-05-17T14:15:57.170Z,23.67
2018-05-17T14:18:03.144Z,22.90
2018-05-17T14:20:12.076Z,27.03
2018-05-17T14:22:20.937Z,17.13
2018-05-17T14:24:26.714Z,21.33
2018-05-17T14:26:32.410Z,19.47
2018-05-17T14:28:37.698Z,17.80
2018-05-17T14:30:42.922Z,21.07
2018-05-17T14:32:48.828Z,22.70
2018-05-17T14:34:54.122Z,24.10
2018-05-17T14:37:00.419Z,18.23
2018-05-17T14:39:07.739Z,18.13
2018-05-17T14:41:16.088Z,15.80
2018-05-17T14:43:22.582Z,20.50
2018-05-17T14:45:28.362Z,15.80
2018-05-17T14:47:33.674Z,19.43
2018-05-17T14:49:39.401Z,13.50
2018-05-17T14:51:45.031Z,18.43
2018-05-17T14:53:50.379Z,14.27
2018-05-17T14:55:55.786Z,16.80
2018-05-17T14:58:03.705Z,21.97
2018-05-17T15:00:11.484Z,19.20
2018-05-17T15:02:18.279Z,20.90
2018-05-17T15:04:25.780Z,19.20
2018-05-17T15:06:31.351Z,17.67
2018-05-17T15:08:36.876Z,18.87
2018-05-17T15:10:42.387Z,18.03
2018-05-17T15:12:47.822Z,14.33
2018-05-17T15:14:53.090Z,21.00
2018-05-17T15:16:58.618Z,17.33
2018-05-17T15:19:03.776Z,20.30
2018-05-17T15:21:14.803Z,20.37
2018-05-17T15:23:21.585Z,11.77
2018-05-17T15:25:27.602Z,18.13
2018-05-17T15:27:32.992Z,16.60
2018-05-17T15:29:38.600Z,15.33
2018-05-17T15:31:43.921Z,14.37
2018-05-17T15:33:49.338Z,23.00
2018-05-17T15:35:55.283Z,16.30
2018-05-17T15:38:00.852Z,21.70
2018-05-17T15:40:08.915Z,19.87
2018-05-17T15:42:17.199Z,18.80
2018-05-17T15:44:24.547Z,19.57
2018-05-17T15:46:29.822Z,15.13
2018-05-17T15:48:35.654Z,19.07
2018-05-17T15:50:40.889Z,24.70
2018-05-17T15:52:46.315Z,21.10
2018-05-17T15:54:51.826Z,18.93
2018-05-17T15:56:57.112Z,23.70
2018-05-17T15:59:02.343Z,18.70
2018-05-17T16:01:09.234Z,20.93
2018-05-17T16:03:17.775Z,18.10
2018-05-17T16:05:23.669Z,16.10
2018-05-17T16:07:29.411Z,17.67
2018-05-17T16:09:34.735Z,19.10
2018-05-17T16:11:40.129Z,17.00
2018-05-17T16:13:45.741Z,16.43
2018-05-17T16:15:51.671Z,14.70
2018-05-17T16:17:56.989Z,17.10
2018-05-17T16:20:02.614Z,17.57
2018-05-17T16:22:09.619Z,25.30
2018-05-17T16:24:18.522Z,17.50
2018-05-17T16:26:25.682Z,16.10
2018-05-17T16:28:30.802Z,17.87
2018-05-17T16:30:35.957Z,17.47
2018-05-17T16:32:41.515Z,14.13
2018-05-17T16:34:47.658Z,18.57
2018-05-17T16:36:53.026Z,16.10
2018-05-17T16:38:58.595Z,17.57
2018-05-17T16:41:03.911Z,20.90
2018-05-17T16:43:11.653Z,22.83
2018-05-17T16:45:19.946Z,22.67
2018-05-17T16:47:27.609Z,20.17
2018-05-17T16:49:32.840Z,22.70
2018-05-17T16:51:38.253Z,13.40
2018-05-17T16:53:43.551Z,18.37
2018-05-17T16:55:48.794Z,18.60
2018-05-17T16:57:54.468Z,24.83
2018-05-17T17:00:00.483Z,15.40
2018-05-17T17:02:06.543Z,16.50
2018-05-17T17:04:15.927Z,16.00
2018-05-17T17:06:22.068Z,17.23
2018-05-17T17:08:27.311Z,21.23
2018-05-17T17:10:32.830Z,20.27
2018-05-17T17:12:39.217Z,23.40
2018-05-17T17:14:45.193Z,15.90
2018-05-17T17:16:51.136Z,14.53
2018-05-17T17:18:56.677Z,25.57
2018-05-17T17:21:02.057Z,13.40
2018-05-17T17:23:09.118Z,16.97
2018-05-17T17:25:16.749Z,17.20
2018-05-17T17:27:24.405Z,16.90
2018-05-17T17:29:30.047Z,18.93
2018-05-17T17:31:35.482Z,18.57
2018-05-17T17:33:41.094Z,16.23
2018-05-17T17:35:47.077Z,18.07
2018-05-17T17:37:52.667Z,14.13
2018-05-17T17:39:58.811Z,18.70
2018-05-17T17:42:04.429Z,18.60
2018-05-17T17:44:12.696Z,14.83
2018-05-17T17:46:20.594Z,14.60
2018-05-17T17:48:26.709Z,20.03
2018-05-17T17:50:32.839Z,17.50
2018-05-17T17:52:38.878Z,16.83
2018-05-17T17:54:44.685Z,21.33
2018-05-17T17:56:50.230Z,15.90
2018-05-17T17:58:56.315Z,18.47
2018-05-17T18:01:03.027Z,16.83
2018-05-17T18:03:10.913Z,23.33
2018-05-17T18:05:19.974Z,14.27
2018-05-17T18:07:26.977Z,25.00
2018-05-17T18:09:34.118Z,18.33
2018-05-17T18:11:40.113Z,19.80
2018-05-17T18:13:46.119Z,19.53
2018-05-17T18:15:51.560Z,14.30
2018-05-17T18:17:57.226Z,14.40
2018-05-17T18:20:02.998Z,17.77
2018-05-17T18:22:09.880Z,15.80
2018-05-17T18:24:18.210Z,23.73
2018-05-17T18:26:25.013Z,295.53
2018-05-17T18:28:31.650Z,433.97
2018-05-17T18:30:37.527Z,377.70
2018-05-17T18:32:43.735Z,291.97
2018-05-17T18:34:49.140Z,310.33
2018-05-17T18:36:55.609Z,221.23
2018-05-17T18:39:03.342Z,183.93
2018-05-17T18:41:12.015Z,194.77
2018-05-17T18:43:19.204Z,140.23
2018-05-17T18:45:26.021Z,143.20
2018-05-17T18:47:31.621Z,127.57
2018-05-17T18:49:37.153Z,114.67
2018-05-17T18:51:42.773Z,85.90
2018-05-17T18:53:49.006Z,90.17
2018-05-17T18:55:54.552Z,77.57
2018-05-17T18:58:00.369Z,72.10
2018-05-17T19:00:07.149Z,63.20
2018-05-17T19:02:16.206Z,67.30
2018-05-17T19:04:25.745Z,64.53
2018-05-17T19:06:31.302Z,49.77
2018-05-17T19:08:36.904Z,48.43
2018-05-17T19:10:42.629Z,45.37
2018-05-17T19:12:48.622Z,49.97
2018-05-17T19:15:56.718Z,43.80
2018-05-17T19:18:03.433Z,45.43
2018-05-17T19:20:11.285Z,41.80
2018-05-17T19:22:17.906Z,38.90
2018-05-17T19:24:24.694Z,32.50
2018-05-17T19:26:30.646Z,33.70
2018-05-17T19:28:35.990Z,31.00
2018-05-17T19:30:41.869Z,34.10
2018-05-17T19:32:47.078Z,32.07
2018-05-17T19:34:52.281Z,24.70
2018-05-17T19:36:57.987Z,30.90
2018-05-17T19:39:03.597Z,24.70
2018-05-17T19:41:11.108Z,25.20
2018-05-17T19:43:18.867Z,24.07
2018-05-17T19:45:24.409Z,32.07
2018-05-17T19:47:30.342Z,26.80
2018-05-17T19:49:35.981Z,23.20
2018-05-17T19:51:41.719Z,22.30
2018-05-17T19:53:47.463Z,24.17
2018-05-17T19:55:53.164Z,27.40
2018-05-17T19:57:58.379Z,23.27
2018-05-17T20:00:03.715Z,21.27
2018-05-17T20:02:11.979Z,25.60
2018-05-17T20:04:21.122Z,30.97
2018-05-17T20:06:26.533Z,19.40
2018-05-17T20:08:33.117Z,22.57
2018-05-17T20:10:38.562Z,25.00
2018-05-17T20:12:44.166Z,21.27
2018-05-17T20:14:49.634Z,21.47
2018-05-17T20:16:54.857Z,21.40
2018-05-17T20:19:00.055Z,17.00
2018-05-17T20:21:06.084Z,26.37
2018-05-17T20:23:14.486Z,19.43
2018-05-17T20:25:21.623Z,18.50
2018-05-17T20:27:27.376Z,18.27
2018-05-17T20:29:32.617Z,18.73
2018-05-17T20:31:37.777Z,19.97
2018-05-17T20:33:43.253Z,17.57
2018-05-17T20:35:48.489Z,18.77
2018-05-17T20:37:53.613Z,16.30
2018-05-17T20:39:59.034Z,16.73
2018-05-17T20:42:04.237Z,24.47
2018-05-17T20:44:12.211Z,17.80
2018-05-17T20:46:20.857Z,22.63
2018-05-17T20:48:26.346Z,20.20
2018-05-17T20:50:31.550Z,23.53
2018-05-17T20:52:37.121Z,14.53
2018-05-17T20:54:42.494Z,12.70
2018-05-17T20:56:47.618Z,18.40
2018-05-17T20:58:53.103Z,19.97
2018-05-17T21:00:58.289Z,21.53
2018-05-17T21:03:04.136Z,19.20
2018-05-17T21:05:12.472Z,15.90
2018-05-17T21:07:19.239Z,19.03
2018-05-17T21:09:24.971Z,16.30
2018-05-17T21:11:30.620Z,16.80
2018-05-17T21:13:35.868Z,19.57
2018-05-17T21:15:41.266Z,19.10
2018-05-17T21:17:47.641Z,19.30
2018-05-17T21:19:52.818Z,14.97
2018-05-17T21:21:57.968Z,15.70
2018-05-17T21:24:03.942Z,16.00
2018-05-17T21:26:11.864Z,13.03
2018-05-17T21:28:18.213Z,13.70
2018-05-17T21:30:24.091Z,17.60
2018-05-17T21:32:30.711Z,15.23
2018-05-17T21:34:36.374Z,17.10
2018-05-17T21:36:41.867Z,17.07
2018-05-17T21:38:47.742Z,17.43
2018-05-17T21:40:53.055Z,12.90
2018-05-17T21:42:58.726Z,20.97
2018-05-17T21:45:04.121Z,15.40
2018-05-17T21:47:12.403Z,18.00
2018-05-17T21:49:22.604Z,14.87
2018-05-17T21:51:28.077Z,15.40
2018-05-17T21:53:34.164Z,15.50
2018-05-17T21:55:39.649Z,15.53
2018-05-17T21:57:46.058Z,23.70
2018-05-17T21:59:51.825Z,163.63
2018-05-17T22:01:57.341Z,271.47
2018-05-17T22:04:04.376Z,393.20
2018-05-17T22:06:13.840Z,275.07
2018-05-17T22:08:21.616Z,206.40
2018-05-17T22:10:27.422Z,158.77
2018-05-17T22:12:32.796Z,170.60
2018-05-17T22:14:38.452Z,306.17
2018-05-17T22:16:44.438Z,455.20
2018-05-17T22:18:49.758Z,388.20
2018-05-17T22:20:55.315Z,327.93
2018-05-17T22:23:01.055Z,260.77
2018-05-17T22:25:07.055Z,244.83
2018-05-17T22:27:15.825Z,208.23
2018-05-17T22:29:23.953Z,207.37
2018-05-17T22:31:29.165Z,180.80
2018-05-17T22:33:34.573Z,144.83
2018-05-17T22:35:40.349Z,111.87
2018-05-17T22:37:46.671Z,127.53
2018-05-17T22:39:52.391Z,121.60
2018-05-17T22:41:57.553Z,109.67
2018-05-17T22:44:02.699Z,103.30
2018-05-17T22:46:10.992Z,102.63
2018-05-17T22:48:18.541Z,78.17
2018-05-17T22:50:25.437Z,80.23
2018-05-17T22:52:31.290Z,76.63
2018-05-17T22:54:36.477Z,72.63
2018-05-17T22:56:50.911Z,65.73
2018-05-17T22:58:57.724Z,61.37
2018-05-17T23:01:03.743Z,53.33
2018-05-17T23:03:11.839Z,59.97
2018-05-17T23:05:18.724Z,48.10
2018-05-17T23:07:26.312Z,41.17
2018-05-17T23:09:31.442Z,41.37
2018-05-17T23:11:37.730Z,32.63
2018-05-17T23:13:43.616Z,40.37
2018-05-17T23:15:48.810Z,31.20
2018-05-17T23:17:54.949Z,31.60
2018-05-17T23:20:00.794Z,25.43
2018-05-17T23:22:07.464Z,31.90
2018-05-17T23:24:17.296Z,31.83
2018-05-17T23:26:24.564Z,29.23
2018-05-17T23:28:30.226Z,23.97
2018-05-17T23:30:36.513Z,25.83
2018-05-17T23:32:42.306Z,23.13
2018-05-17T23:34:47.497Z,21.27
2018-05-17T23:36:53.792Z,24.47
2018-05-17T23:38:59.787Z,18.80
2018-05-17T23:41:15.913Z,22.40
2018-05-17T23:43:23.564Z,21.43
2018-05-17T23:45:29.253Z,24.13
2018-05-17T23:47:35.133Z,14.97
2018-05-17T23:49:41.346Z,15.00
2018-05-17T23:51:47.747Z,17.63
2018-05-17T23:53:52.942Z,18.17
2018-05-17T23:55:59.107Z,21.90
2018-05-17T23:58:04.921Z,16.67
